createdAt,value
2022-08-14T00:00:33.949Z,1007.22
2022-08-14T00:01:34.002Z,1007.17
2022-08-14T00:02:33.979Z,1007.25
2022-08-14T00:03:33.920Z,1007.14
2022-08-14T00:04:35.618Z,1007.10
2022-08-14T00:05:34.893Z,1007.10
2022-08-14T00:06:33.891Z,1007.07
2022-08-14T00:07:33.877Z,1007.12
2022-08-14T00:08:44.291Z,1007.02
2022-08-14T00:09:55.310Z,1007.04
2022-08-14T00:10:51.406Z,1007.09
2022-08-14T00:11:34.826Z,1006.96
2022-08-14T00:12:37.568Z,1006.96
2022-08-14T00:13:34.803Z,1007.02
2022-08-14T00:14:33.793Z,1006.99
2022-08-14T00:15:43.744Z,1007.01
2022-08-14T00:16:41.306Z,1006.97
2022-08-14T00:17:38.163Z,1006.95
2022-08-14T00:19:06.402Z,1006.98
2022-08-14T00:19:34.736Z,1006.93
2022-08-14T00:20:41.233Z,1006.95
2022-08-14T00:21:34.714Z,1006.89
2022-08-14T00:22:56.566Z,1006.94
2022-08-14T00:23:34.692Z,1006.87
2022-08-14T00:24:33.680Z,1006.90
2022-08-14T00:25:42.368Z,1006.88
2022-08-14T00:26:33.656Z,1006.89
2022-08-14T00:27:37.778Z,1006.83
2022-08-14T00:28:35.082Z,1006.81
2022-08-14T00:29:40.596Z,1006.82
2022-08-14T00:30:34.646Z,1006.81
2022-08-14T00:31:35.210Z,1006.85
2022-08-14T00:32:53.122Z,1006.79
2022-08-14T00:33:50.838Z,1006.78
2022-08-14T00:34:37.089Z,1006.84
2022-08-14T00:36:34.960Z,1006.86
2022-08-14T00:36:48.644Z,1006.81
2022-08-14T00:37:34.538Z,1006.82
2022-08-14T00:38:34.716Z,1006.80
2022-08-14T00:39:33.570Z,1006.75
2022-08-14T00:40:35.514Z,1006.77
2022-08-14T00:41:33.533Z,1006.76
2022-08-14T00:42:55.551Z,1006.80
2022-08-14T00:43:34.488Z,1006.75
2022-08-14T00:44:33.527Z,1006.76
2022-08-14T00:45:33.447Z,1006.74
2022-08-14T00:46:33.657Z,1006.71
2022-08-14T00:47:33.435Z,1006.70
2022-08-14T00:48:37.001Z,1006.72
2022-08-14T00:49:38.209Z,1006.70
2022-08-14T00:50:34.388Z,1006.68
2022-08-14T00:51:37.823Z,1006.66
2022-08-14T00:52:33.366Z,1006.63
2022-08-14T00:53:33.361Z,1006.70
2022-08-14T00:54:33.349Z,1006.65
2022-08-14T00:55:35.978Z,1006.65
2022-08-14T00:56:34.337Z,1006.62
2022-08-14T00:57:33.313Z,1006.60
2022-08-14T00:58:33.406Z,1006.59
2022-08-14T00:59:33.296Z,1006.62
2022-08-14T01:00:37.591Z,1006.58
2022-08-14T01:01:34.332Z,1006.59
2022-08-14T01:02:33.256Z,1006.56
2022-08-14T01:03:33.248Z,1006.56
2022-08-14T01:04:51.045Z,1006.57
2022-08-14T01:05:41.799Z,1006.54
2022-08-14T01:06:34.502Z,1006.55
2022-08-14T01:07:38.527Z,1006.54
2022-08-14T01:08:52.450Z,1006.53
2022-08-14T01:09:34.178Z,1006.55
2022-08-14T01:10:38.398Z,1006.52
2022-08-14T01:11:36.135Z,1006.52
2022-08-14T01:12:33.160Z,1006.56
2022-08-14T01:13:42.249Z,1006.54
2022-08-14T01:14:34.118Z,1006.59
2022-08-14T01:15:57.915Z,1006.52
2022-08-14T01:16:34.094Z,1006.51
2022-08-14T01:17:33.107Z,1006.55
2022-08-14T01:18:33.078Z,1006.45
2022-08-14T01:19:33.077Z,1006.41
2022-08-14T01:20:33.053Z,1006.47
2022-08-14T01:21:34.719Z,1006.44
2022-08-14T01:22:34.041Z,1006.45
2022-08-14T01:23:46.412Z,1006.43
2022-08-14T01:24:34.401Z,1006.41
2022-08-14T01:25:32.997Z,1006.49
2022-08-14T01:26:35.026Z,1006.41
2022-08-14T01:27:45.167Z,1006.38
2022-08-14T01:28:46.650Z,1006.43
2022-08-14T01:29:59.440Z,1006.37
2022-08-14T01:30:38.256Z,1006.35
2022-08-14T01:31:32.930Z,1006.35
2022-08-14T01:32:37.390Z,1006.33
2022-08-14T01:34:00.262Z,1006.27
2022-08-14T01:35:19.619Z,1006.28
2022-08-14T01:36:03.370Z,1006.25
2022-08-14T01:36:35.424Z,1006.25
2022-08-14T01:37:32.877Z,1006.23
2022-08-14T01:38:32.846Z,1006.26
2022-08-14T01:39:32.882Z,1006.20
2022-08-14T01:40:36.955Z,1006.22
2022-08-14T01:41:33.815Z,1006.25
2022-08-14T01:42:36.141Z,1006.25
2022-08-14T01:43:35.878Z,1006.19
2022-08-14T01:44:34.519Z,1006.22
2022-08-14T01:45:40.840Z,1006.20
2022-08-14T01:46:33.489Z,1006.18
2022-08-14T01:47:37.113Z,1006.18
2022-08-14T01:48:32.758Z,1006.16
2022-08-14T01:49:35.255Z,1006.15
2022-08-14T01:50:33.827Z,1006.16
2022-08-14T01:51:32.705Z,1006.09
2022-08-14T01:52:33.978Z,1006.10
2022-08-14T01:53:35.801Z,1006.04
2022-08-14T01:54:38.133Z,1006.06
2022-08-14T01:55:33.665Z,1006.06
2022-08-14T01:56:36.914Z,1006.05
2022-08-14T01:57:49.522Z,1006.04
2022-08-14T01:58:33.623Z,1006.03
2022-08-14T01:59:38.267Z,1006.01
2022-08-14T02:00:36.357Z,1006.05
2022-08-14T02:01:32.666Z,1006.02
2022-08-14T02:02:39.667Z,1005.97
2022-08-14T02:03:32.568Z,1005.98
2022-08-14T02:04:54.732Z,1005.99
2022-08-14T02:05:35.517Z,1005.94
2022-08-14T02:06:33.758Z,1005.94
2022-08-14T02:07:53.441Z,1005.95
2022-08-14T02:08:34.590Z,1005.94
2022-08-14T02:09:32.525Z,1005.85
2022-08-14T02:10:33.491Z,1005.90
2022-08-14T02:11:33.488Z,1005.86
2022-08-14T02:12:32.469Z,1005.84
2022-08-14T02:13:32.463Z,1005.87
2022-08-14T02:14:32.462Z,1005.85
2022-08-14T02:15:32.437Z,1005.89
2022-08-14T02:16:32.440Z,1005.77
2022-08-14T02:17:32.413Z,1005.81
2022-08-14T02:18:32.588Z,1005.79
2022-08-14T02:19:32.513Z,1005.78
2022-08-14T02:20:32.381Z,1005.78
2022-08-14T02:21:39.474Z,1005.73
2022-08-14T02:22:47.971Z,1005.71
2022-08-14T02:23:36.139Z,1005.71
2022-08-14T02:24:40.261Z,1005.64
2022-08-14T02:25:33.331Z,1005.67
2022-08-14T02:26:32.304Z,1005.62
2022-08-14T02:28:21.978Z,1005.63
2022-08-14T02:28:57.377Z,1005.61
2022-08-14T02:29:59.325Z,1005.63
2022-08-14T02:30:33.270Z,1005.63
2022-08-14T02:31:42.024Z,1005.60
2022-08-14T02:32:36.601Z,1005.58
2022-08-14T02:33:33.704Z,1005.61
2022-08-14T02:34:32.224Z,1005.60
2022-08-14T02:35:33.119Z,1005.57
2022-08-14T02:37:04.451Z,1005.50
2022-08-14T02:37:47.082Z,1005.56
2022-08-14T02:38:34.950Z,1005.50
2022-08-14T02:39:32.191Z,1005.55
2022-08-14T02:40:33.897Z,1005.52
2022-08-14T02:41:36.689Z,1005.46
2022-08-14T02:42:37.439Z,1005.47
2022-08-14T02:43:36.650Z,1005.50
2022-08-14T02:44:32.133Z,1005.54
2022-08-14T02:45:38.361Z,1005.51
2022-08-14T02:46:33.851Z,1005.46
2022-08-14T02:47:32.070Z,1005.50
2022-08-14T02:49:02.469Z,1005.44
2022-08-14T02:49:34.158Z,1005.46
2022-08-14T02:50:33.688Z,1005.46
2022-08-14T02:51:32.042Z,1005.46
2022-08-14T02:52:57.733Z,1005.43
2022-08-14T02:53:33.255Z,1005.44
2022-08-14T02:54:31.991Z,1005.41
2022-08-14T02:55:31.982Z,1005.45
2022-08-14T02:57:14.049Z,1005.42
2022-08-14T02:57:40.374Z,1005.42
2022-08-14T02:58:32.951Z,1005.39
2022-08-14T02:59:33.876Z,1005.42
2022-08-14T03:00:31.972Z,1005.39
2022-08-14T03:01:50.292Z,1005.41
2022-08-14T03:02:48.694Z,1005.36
2022-08-14T03:03:35.313Z,1005.41
2022-08-14T03:04:31.883Z,1005.33
2022-08-14T03:05:36.153Z,1005.32
2022-08-14T03:06:48.887Z,1005.31
2022-08-14T03:07:32.853Z,1005.32
2022-08-14T03:08:31.978Z,1005.33
2022-08-14T03:09:41.976Z,1005.28
2022-08-14T03:10:33.431Z,1005.23
2022-08-14T03:11:35.085Z,1005.24
2022-08-14T03:12:32.806Z,1005.19
2022-08-14T03:13:31.779Z,1005.25
2022-08-14T03:14:31.768Z,1005.28
2022-08-14T03:15:31.763Z,1005.25
2022-08-14T03:16:31.745Z,1005.24
2022-08-14T03:17:41.116Z,1005.24
2022-08-14T03:18:32.882Z,1005.27
2022-08-14T03:19:31.707Z,1005.23
2022-08-14T03:20:31.698Z,1005.23
2022-08-14T03:21:31.683Z,1005.29
2022-08-14T03:22:31.696Z,1005.26
2022-08-14T03:23:31.665Z,1005.30
2022-08-14T03:24:31.669Z,1005.24
2022-08-14T03:25:31.640Z,1005.31
2022-08-14T03:26:31.630Z,1005.36
2022-08-14T03:27:35.365Z,1005.33
2022-08-14T03:28:33.244Z,1005.33
2022-08-14T03:29:31.605Z,1005.32
2022-08-14T03:30:37.108Z,1005.33
2022-08-14T03:31:32.578Z,1005.33
2022-08-14T03:32:32.160Z,1005.29
2022-08-14T03:33:37.983Z,1005.27
2022-08-14T03:34:47.740Z,1005.27
2022-08-14T03:35:39.741Z,1005.33
2022-08-14T03:37:39.445Z,1005.29
2022-08-14T03:38:01.714Z,1005.28
2022-08-14T03:39:13.317Z,1005.28
2022-08-14T03:39:32.544Z,1005.35
2022-08-14T03:40:31.474Z,1005.38
2022-08-14T03:41:33.039Z,1005.35
2022-08-14T03:42:36.709Z,1005.35
2022-08-14T03:43:32.758Z,1005.42
2022-08-14T03:45:26.480Z,1005.35
2022-08-14T03:45:34.690Z,1005.33
2022-08-14T03:46:52.288Z,1005.35
2022-08-14T03:47:46.705Z,1005.31
2022-08-14T03:48:40.151Z,1005.36
2022-08-14T03:49:32.386Z,1005.34
2022-08-14T03:50:32.343Z,1005.36
2022-08-14T03:51:31.350Z,1005.38
2022-08-14T03:52:38.819Z,1005.33
2022-08-14T03:53:34.263Z,1005.38
2022-08-14T03:54:31.324Z,1005.34
2022-08-14T03:55:31.304Z,1005.39
2022-08-14T03:56:31.298Z,1005.34
2022-08-14T03:57:31.318Z,1005.35
2022-08-14T03:58:36.577Z,1005.30
2022-08-14T03:59:31.304Z,1005.35
2022-08-14T04:00:43.235Z,1005.32
2022-08-14T04:01:39.212Z,1005.27
2022-08-14T04:02:37.703Z,1005.31
2022-08-14T04:03:32.219Z,1005.32
2022-08-14T04:04:31.221Z,1005.31
2022-08-14T04:05:42.947Z,1005.29
2022-08-14T04:06:32.246Z,1005.35
2022-08-14T04:07:32.914Z,1005.30
2022-08-14T04:08:32.165Z,1005.31
2022-08-14T04:09:31.171Z,1005.27
2022-08-14T04:10:32.654Z,1005.28
2022-08-14T04:11:31.124Z,1005.27
2022-08-14T04:12:31.110Z,1005.27
2022-08-14T04:13:31.708Z,1005.28
2022-08-14T04:14:31.097Z,1005.27
2022-08-14T04:15:31.093Z,1005.32
2022-08-14T04:16:31.672Z,1005.31
2022-08-14T04:17:31.068Z,1005.31
2022-08-14T04:18:31.050Z,1005.31
2022-08-14T04:19:33.143Z,1005.29
2022-08-14T04:20:32.046Z,1005.28
2022-08-14T04:21:39.879Z,1005.24
2022-08-14T04:22:32.003Z,1005.30
2022-08-14T04:23:33.297Z,1005.30
2022-08-14T04:24:30.979Z,1005.35
2022-08-14T04:25:31.991Z,1005.30
2022-08-14T04:26:42.951Z,1005.37
2022-08-14T04:27:31.977Z,1005.25
2022-08-14T04:29:07.794Z,1005.35
2022-08-14T04:29:32.613Z,1005.37
2022-08-14T04:30:32.908Z,1005.34
2022-08-14T04:32:58.330Z,1005.31
2022-08-14T04:33:00.850Z,1005.29
2022-08-14T04:33:32.286Z,1005.33
2022-08-14T04:34:30.866Z,1005.33
2022-08-14T04:35:55.286Z,1005.29
2022-08-14T04:36:31.867Z,1005.29
2022-08-14T04:37:30.840Z,1005.28
2022-08-14T04:38:36.898Z,1005.27
2022-08-14T04:39:30.859Z,1005.29
2022-08-14T04:40:30.798Z,1005.29
2022-08-14T04:41:31.002Z,1005.31
2022-08-14T04:42:30.783Z,1005.31
2022-08-14T04:43:38.717Z,1005.34
2022-08-14T04:44:36.714Z,1005.31
2022-08-14T04:45:31.746Z,1005.29
2022-08-14T04:46:55.280Z,1005.28
2022-08-14T04:47:31.716Z,1005.33
2022-08-14T04:48:36.707Z,1005.36
2022-08-14T04:49:31.693Z,1005.35
2022-08-14T04:50:37.875Z,1005.33
2022-08-14T04:51:33.732Z,1005.40
2022-08-14T04:52:31.662Z,1005.40
2022-08-14T04:53:34.743Z,1005.31
2022-08-14T04:54:30.643Z,1005.40
2022-08-14T04:55:30.853Z,1005.36
2022-08-14T04:56:34.070Z,1005.38
2022-08-14T04:57:30.604Z,1005.37
2022-08-14T04:58:32.921Z,1005.32
2022-08-14T04:59:30.586Z,1005.37
2022-08-14T05:00:30.575Z,1005.32
2022-08-14T05:01:33.919Z,1005.28
2022-08-14T05:02:31.642Z,1005.31
2022-08-14T05:03:30.537Z,1005.30
2022-08-14T05:04:30.531Z,1005.32
2022-08-14T05:05:32.260Z,1005.35
2022-08-14T05:06:38.110Z,1005.31
2022-08-14T05:07:53.927Z,1005.39
2022-08-14T05:08:50.582Z,1005.40
2022-08-14T05:09:31.475Z,1005.38
2022-08-14T05:10:32.379Z,1005.34
2022-08-14T05:11:30.451Z,1005.34
2022-08-14T05:13:13.996Z,1005.34
2022-08-14T05:13:42.321Z,1005.31
2022-08-14T05:14:46.844Z,1005.27
2022-08-14T05:15:32.156Z,1005.25
2022-08-14T05:16:30.393Z,1005.25
2022-08-14T05:17:43.543Z,1005.32
2022-08-14T05:19:16.751Z,1005.23
2022-08-14T05:19:32.731Z,1005.20
2022-08-14T05:21:04.853Z,1005.18
2022-08-14T05:21:57.499Z,1005.22
2022-08-14T05:22:31.339Z,1005.22
2022-08-14T05:23:30.318Z,1005.17
2022-08-14T05:24:30.303Z,1005.24
2022-08-14T05:25:30.982Z,1005.15
2022-08-14T05:26:30.285Z,1005.13
2022-08-14T05:27:31.192Z,1005.12
2022-08-14T05:28:30.258Z,1005.17
2022-08-14T05:29:30.242Z,1005.17
2022-08-14T05:30:30.253Z,1005.15
2022-08-14T05:31:39.666Z,1005.10
2022-08-14T05:32:31.233Z,1005.06
2022-08-14T05:33:30.243Z,1005.12
2022-08-14T05:34:31.866Z,1005.09
2022-08-14T05:35:30.186Z,1005.11
2022-08-14T05:36:30.168Z,1005.14
2022-08-14T05:37:30.596Z,1005.12
2022-08-14T05:38:31.106Z,1005.16
2022-08-14T05:39:30.268Z,1005.15
2022-08-14T05:40:30.146Z,1005.04
2022-08-14T05:41:52.448Z,1004.98
2022-08-14T05:42:32.216Z,1004.95
2022-08-14T05:43:40.939Z,1004.93
2022-08-14T05:44:31.088Z,1005.00
2022-08-14T05:45:30.068Z,1004.97
2022-08-14T05:46:30.064Z,1004.91
2022-08-14T05:47:39.339Z,1004.95
2022-08-14T05:48:33.742Z,1004.93
2022-08-14T05:49:33.044Z,1004.85
2022-08-14T05:50:30.020Z,1004.87
2022-08-14T05:51:30.653Z,1004.92
2022-08-14T05:52:39.077Z,1004.95
2022-08-14T05:53:32.274Z,1004.95
2022-08-14T05:54:34.532Z,1004.87
2022-08-14T05:55:30.984Z,1004.89
2022-08-14T05:56:29.953Z,1004.89
2022-08-14T05:57:29.947Z,1004.93
2022-08-14T05:58:33.817Z,1004.91
2022-08-14T05:59:39.181Z,1004.94
2022-08-14T06:00:37.174Z,1004.98
2022-08-14T06:01:31.634Z,1004.94
2022-08-14T06:02:29.925Z,1004.95
2022-08-14T06:03:29.867Z,1004.93
2022-08-14T06:04:29.856Z,1004.93
2022-08-14T06:05:29.843Z,1004.88
2022-08-14T06:06:33.711Z,1004.89
2022-08-14T06:07:30.859Z,1004.85
2022-08-14T06:08:36.063Z,1004.91
2022-08-14T06:09:30.796Z,1004.83
2022-08-14T06:10:30.794Z,1004.77
2022-08-14T06:11:30.998Z,1004.83
2022-08-14T06:13:00.090Z,1004.80
2022-08-14T06:13:31.762Z,1004.80
2022-08-14T06:14:30.741Z,1004.75
2022-08-14T06:15:30.807Z,1004.71
2022-08-14T06:16:29.730Z,1004.80
2022-08-14T06:17:29.711Z,1004.71
2022-08-14T06:18:32.179Z,1004.76
2022-08-14T06:19:29.808Z,1004.72
2022-08-14T06:20:30.236Z,1004.81
2022-08-14T06:21:29.732Z,1004.77
2022-08-14T06:22:29.659Z,1004.77
2022-08-14T06:23:29.651Z,1004.78
2022-08-14T06:24:30.628Z,1004.75
2022-08-14T06:25:30.640Z,1004.79
2022-08-14T06:26:30.451Z,1004.75
2022-08-14T06:27:34.071Z,1004.75
2022-08-14T06:28:30.596Z,1004.77
2022-08-14T06:29:32.461Z,1004.83
2022-08-14T06:30:45.858Z,1004.75
2022-08-14T06:31:30.563Z,1004.84
2022-08-14T06:32:36.941Z,1004.79
2022-08-14T06:35:02.401Z,1004.79
2022-08-14T06:35:09.809Z,1004.82
2022-08-14T06:35:30.511Z,1004.84
2022-08-14T06:36:29.496Z,1004.84
2022-08-14T06:37:29.487Z,1004.89
2022-08-14T06:38:29.556Z,1004.85
2022-08-14T06:39:36.351Z,1004.81
2022-08-14T06:40:30.626Z,1004.83
2022-08-14T06:41:52.654Z,1004.78
2022-08-14T06:42:33.034Z,1004.79
2022-08-14T06:43:32.531Z,1004.80
2022-08-14T06:44:30.668Z,1004.79
2022-08-14T06:45:29.395Z,1004.77
2022-08-14T06:46:34.106Z,1004.82
2022-08-14T06:47:30.372Z,1004.85
2022-08-14T06:48:29.382Z,1004.93
2022-08-14T06:49:30.223Z,1004.94
2022-08-14T06:50:30.229Z,1004.94
2022-08-14T06:51:38.797Z,1004.90
2022-08-14T06:52:30.320Z,1004.91
2022-08-14T06:53:29.310Z,1004.89
2022-08-14T06:54:31.579Z,1004.92
2022-08-14T06:55:29.595Z,1004.85
2022-08-14T06:56:29.283Z,1004.91
2022-08-14T06:57:29.266Z,1004.83
2022-08-14T06:58:31.625Z,1004.87
2022-08-14T06:59:29.262Z,1004.94
2022-08-14T07:00:30.757Z,1004.93
2022-08-14T07:01:29.247Z,1004.91
2022-08-14T07:02:29.409Z,1004.97
2022-08-14T07:03:29.200Z,1004.91
2022-08-14T07:04:29.189Z,1004.97
2022-08-14T07:05:29.196Z,1004.97
2022-08-14T07:06:45.538Z,1004.92
2022-08-14T07:07:30.158Z,1004.95
2022-08-14T07:08:29.805Z,1004.91
2022-08-14T07:09:44.247Z,1004.92
2022-08-14T07:10:30.124Z,1004.86
2022-08-14T07:11:29.114Z,1004.85
2022-08-14T07:12:52.222Z,1004.87
2022-08-14T07:13:30.653Z,1004.91
2022-08-14T07:14:29.114Z,1004.78
2022-08-14T07:15:29.077Z,1004.80
2022-08-14T07:16:29.060Z,1004.74
2022-08-14T07:17:29.054Z,1004.82
2022-08-14T07:18:30.045Z,1004.76
2022-08-14T07:19:29.052Z,1004.87
2022-08-14T07:20:31.341Z,1004.78
2022-08-14T07:21:29.013Z,1004.80
2022-08-14T07:22:33.103Z,1004.84
2022-08-14T07:23:31.332Z,1004.73
2022-08-14T07:24:31.399Z,1004.71
2022-08-14T07:25:32.876Z,1004.71
2022-08-14T07:26:29.421Z,1004.68
2022-08-14T07:27:28.943Z,1004.69
2022-08-14T07:28:29.925Z,1004.67
2022-08-14T07:29:29.193Z,1004.73
2022-08-14T07:30:34.692Z,1004.73
2022-08-14T07:31:29.895Z,1004.68
2022-08-14T07:32:33.867Z,1004.70
2022-08-14T07:33:30.286Z,1004.68
2022-08-14T07:34:40.605Z,1004.71
2022-08-14T07:35:30.318Z,1004.72
2022-08-14T07:36:30.802Z,1004.78
2022-08-14T07:37:28.848Z,1004.66
2022-08-14T07:38:33.666Z,1004.64
2022-08-14T07:39:29.848Z,1004.63
2022-08-14T07:40:29.991Z,1004.68
2022-08-14T07:41:31.288Z,1004.58
2022-08-14T07:42:29.787Z,1004.59
2022-08-14T07:43:28.762Z,1004.58
2022-08-14T07:44:33.105Z,1004.60
2022-08-14T07:45:32.040Z,1004.62
2022-08-14T07:46:29.248Z,1004.61
2022-08-14T07:47:29.161Z,1004.61
2022-08-14T07:48:28.704Z,1004.64
2022-08-14T07:49:28.700Z,1004.62
2022-08-14T07:50:34.403Z,1004.66
2022-08-14T07:51:36.845Z,1004.69
2022-08-14T07:52:30.853Z,1004.61
2022-08-14T07:53:28.654Z,1004.60
2022-08-14T07:54:30.404Z,1004.60
2022-08-14T07:55:28.999Z,1004.57
2022-08-14T07:56:44.492Z,1004.59
2022-08-14T07:57:29.607Z,1004.54
2022-08-14T07:58:31.738Z,1004.52
2022-08-14T07:59:41.895Z,1004.58
2022-08-14T08:00:31.581Z,1004.58
2022-08-14T08:01:30.013Z,1004.52
2022-08-14T08:02:35.722Z,1004.58
2022-08-14T08:03:30.346Z,1004.50
2022-08-14T08:04:28.538Z,1004.48
2022-08-14T08:05:29.525Z,1004.47
2022-08-14T08:06:28.530Z,1004.46
2022-08-14T08:07:30.023Z,1004.49
2022-08-14T08:08:28.487Z,1004.48
2022-08-14T08:09:31.897Z,1004.46
2022-08-14T08:10:46.308Z,1004.44
2022-08-14T08:11:29.480Z,1004.43
2022-08-14T08:12:31.046Z,1004.42
2022-08-14T08:13:28.679Z,1004.44
2022-08-14T08:14:28.574Z,1004.42
2022-08-14T08:15:28.437Z,1004.38
2022-08-14T08:16:28.425Z,1004.38
2022-08-14T08:17:34.818Z,1004.36
2022-08-14T08:18:31.065Z,1004.36
2022-08-14T08:19:28.371Z,1004.48
2022-08-14T08:20:29.432Z,1004.45
2022-08-14T08:21:28.363Z,1004.33
2022-08-14T08:22:32.472Z,1004.36
2022-08-14T08:23:34.476Z,1004.32
2022-08-14T08:24:29.309Z,1004.31
2022-08-14T08:25:28.317Z,1004.25
2022-08-14T08:26:28.294Z,1004.25
2022-08-14T08:27:28.344Z,1004.32
2022-08-14T08:28:28.276Z,1004.28
2022-08-14T08:29:29.742Z,1004.26
2022-08-14T08:30:28.960Z,1004.28
2022-08-14T08:31:33.077Z,1004.29
2022-08-14T08:32:30.048Z,1004.19
2022-08-14T08:33:32.059Z,1004.17
2022-08-14T08:34:28.220Z,1004.17
2022-08-14T08:35:46.119Z,1004.10
2022-08-14T08:36:29.860Z,1004.09
2022-08-14T08:37:30.509Z,1004.11
2022-08-14T08:39:15.063Z,1004.05
2022-08-14T08:39:30.960Z,1004.06
2022-08-14T08:40:30.921Z,1004.05
2022-08-14T08:41:28.133Z,1003.94
2022-08-14T08:42:31.402Z,1003.97
2022-08-14T08:43:29.109Z,1003.96
2022-08-14T08:44:32.718Z,1003.93
2022-08-14T08:45:29.083Z,1003.96
2022-08-14T08:46:28.067Z,1003.90
2022-08-14T08:47:28.063Z,1003.89
2022-08-14T08:48:35.524Z,1003.87
2022-08-14T08:49:29.059Z,1003.85
2022-08-14T08:50:31.670Z,1003.88
2022-08-14T08:51:31.193Z,1003.92
2022-08-14T08:52:31.756Z,1003.91
2022-08-14T08:53:27.991Z,1003.88
2022-08-14T08:54:31.568Z,1003.93
2022-08-14T08:55:27.974Z,1003.91
2022-08-14T08:56:30.318Z,1003.86
2022-08-14T08:57:28.952Z,1003.83
2022-08-14T08:58:27.936Z,1003.87
2022-08-14T08:59:31.650Z,1003.80
2022-08-14T09:00:28.929Z,1003.85
2022-08-14T09:01:27.957Z,1003.79
2022-08-14T09:02:28.010Z,1003.89
2022-08-14T09:03:27.979Z,1003.79
2022-08-14T09:04:27.893Z,1003.76
2022-08-14T09:05:27.868Z,1003.76
2022-08-14T09:07:00.915Z,1003.72
2022-08-14T09:07:28.853Z,1003.72
2022-08-14T09:08:31.574Z,1003.71
2022-08-14T09:09:30.427Z,1003.75
2022-08-14T09:10:27.857Z,1003.67
2022-08-14T09:11:27.796Z,1003.70
2022-08-14T09:12:31.509Z,1003.69
2022-08-14T09:13:27.879Z,1003.72
2022-08-14T09:14:27.774Z,1003.74
2022-08-14T09:15:36.686Z,1003.69
2022-08-14T09:16:28.735Z,1003.59
2022-08-14T09:17:27.733Z,1003.63
2022-08-14T09:18:27.719Z,1003.71
2022-08-14T09:19:27.731Z,1003.64
2022-08-14T09:20:29.832Z,1003.68
2022-08-14T09:21:31.414Z,1003.68
2022-08-14T09:22:35.713Z,1003.70
2022-08-14T09:23:35.190Z,1003.70
2022-08-14T09:24:35.260Z,1003.69
2022-08-14T09:26:00.547Z,1003.66
2022-08-14T09:26:28.757Z,1003.70
2022-08-14T09:27:27.653Z,1003.73
2022-08-14T09:28:27.614Z,1003.73
2022-08-14T09:29:28.647Z,1003.74
2022-08-14T09:30:30.916Z,1003.72
2022-08-14T09:31:28.575Z,1003.78
2022-08-14T09:32:58.937Z,1003.77
2022-08-14T09:33:28.558Z,1003.76
2022-08-14T09:34:28.123Z,1003.83
2022-08-14T09:35:27.786Z,1003.74
2022-08-14T09:36:27.514Z,1003.77
2022-08-14T09:37:27.518Z,1003.79
2022-08-14T09:38:27.595Z,1003.82
2022-08-14T09:39:27.537Z,1003.79
2022-08-14T09:40:29.276Z,1003.80
2022-08-14T09:41:36.771Z,1003.89
2022-08-14T09:42:33.137Z,1003.81
2022-08-14T09:43:28.454Z,1003.77
2022-08-14T09:44:27.437Z,1003.79
2022-08-14T09:45:30.389Z,1003.71
2022-08-14T09:46:28.427Z,1003.69
2022-08-14T09:47:27.405Z,1003.66
2022-08-14T09:48:30.681Z,1003.60
2022-08-14T09:49:27.387Z,1003.65
2022-08-14T09:50:27.372Z,1003.61
2022-08-14T09:51:33.059Z,1003.66
2022-08-14T09:52:33.778Z,1003.69
2022-08-14T09:54:12.899Z,1003.63
2022-08-14T09:54:28.329Z,1003.58
2022-08-14T09:55:27.869Z,1003.60
2022-08-14T09:56:30.420Z,1003.52
2022-08-14T09:57:27.519Z,1003.58
2022-08-14T09:58:27.281Z,1003.59
2022-08-14T09:59:28.345Z,1003.61
2022-08-14T10:00:27.267Z,1003.60
2022-08-14T10:01:27.250Z,1003.54
2022-08-14T10:02:27.977Z,1003.54
2022-08-14T10:03:28.754Z,1003.58
2022-08-14T10:04:33.461Z,1003.58
2022-08-14T10:05:28.219Z,1003.54
2022-08-14T10:06:28.379Z,1003.53
2022-08-14T10:07:27.191Z,1003.53
2022-08-14T10:08:28.160Z,1003.51
2022-08-14T10:09:27.159Z,1003.50
2022-08-14T10:10:28.145Z,1003.47
2022-08-14T10:11:34.825Z,1003.42
2022-08-14T10:12:28.574Z,1003.44
2022-08-14T10:13:27.133Z,1003.45
2022-08-14T10:14:34.588Z,1003.34
2022-08-14T10:15:30.063Z,1003.29
2022-08-14T10:16:33.028Z,1003.23
2022-08-14T10:17:32.950Z,1003.30
2022-08-14T10:18:28.071Z,1003.21
2022-08-14T10:19:27.049Z,1003.26
2022-08-14T10:20:39.589Z,1003.16
2022-08-14T10:21:28.030Z,1003.23
2022-08-14T10:23:14.744Z,1003.32
2022-08-14T10:23:30.028Z,1003.24
2022-08-14T10:24:31.324Z,1003.14
2022-08-14T10:25:27.989Z,1003.12
2022-08-14T10:26:28.625Z,1003.21
2022-08-14T10:27:27.175Z,1003.12
2022-08-14T10:29:03.534Z,1003.13
2022-08-14T10:29:27.956Z,1003.09
2022-08-14T10:30:26.942Z,1003.03
2022-08-14T10:31:27.120Z,1003.05
2022-08-14T10:32:36.219Z,1003.01
2022-08-14T10:33:27.901Z,1003.04
2022-08-14T10:34:35.523Z,1003.01
2022-08-14T10:35:31.039Z,1003.02
2022-08-14T10:36:36.975Z,1003.02
2022-08-14T10:37:28.114Z,1003.00
2022-08-14T10:38:26.860Z,1002.97
2022-08-14T10:39:26.900Z,1002.99
2022-08-14T10:40:37.605Z,1003.01
2022-08-14T10:41:31.710Z,1002.97
2022-08-14T10:42:26.798Z,1002.97
2022-08-14T10:43:26.803Z,1002.92
2022-08-14T10:44:29.507Z,1002.95
2022-08-14T10:45:26.802Z,1002.96
2022-08-14T10:47:40.062Z,1002.89
2022-08-14T10:47:40.875Z,1002.83
2022-08-14T10:48:36.878Z,1002.84
2022-08-14T10:49:27.721Z,1002.81
2022-08-14T10:50:26.718Z,1002.78
2022-08-14T10:51:26.738Z,1002.77
2022-08-14T10:52:26.710Z,1002.76
2022-08-14T10:53:26.680Z,1002.77
2022-08-14T10:54:39.891Z,1002.78
2022-08-14T10:55:27.674Z,1002.72
2022-08-14T10:56:32.197Z,1002.71
2022-08-14T10:57:27.634Z,1002.69
2022-08-14T10:58:26.628Z,1002.71
2022-08-14T10:59:31.282Z,1002.69
2022-08-14T11:00:30.063Z,1002.66
2022-08-14T11:01:26.613Z,1002.61
2022-08-14T11:02:44.761Z,1002.62
2022-08-14T11:03:55.197Z,1002.62
2022-08-14T11:04:27.851Z,1002.57
2022-08-14T11:05:26.552Z,1002.57
2022-08-14T11:06:27.243Z,1002.64
2022-08-14T11:07:26.548Z,1002.57
2022-08-14T11:08:26.515Z,1002.56
2022-08-14T11:09:31.636Z,1002.56
2022-08-14T11:10:27.763Z,1002.56
2022-08-14T11:11:26.479Z,1002.56
2022-08-14T11:12:40.007Z,1002.56
2022-08-14T11:13:27.489Z,1002.61
2022-08-14T11:14:26.686Z,1002.56
2022-08-14T11:15:26.433Z,1002.57
2022-08-14T11:16:26.761Z,1002.59
2022-08-14T11:17:26.427Z,1002.59
2022-08-14T11:18:32.296Z,1002.61
2022-08-14T11:19:27.397Z,1002.59
2022-08-14T11:20:26.396Z,1002.52
2022-08-14T11:21:26.366Z,1002.52
2022-08-14T11:22:55.865Z,1002.50
2022-08-14T11:23:27.359Z,1002.49
2022-08-14T11:24:54.050Z,1002.51
2022-08-14T11:25:43.204Z,1002.43
2022-08-14T11:26:27.317Z,1002.46
2022-08-14T11:27:33.375Z,1002.49
2022-08-14T11:28:48.556Z,1002.52
2022-08-14T11:29:27.281Z,1002.38
2022-08-14T11:30:50.742Z,1002.51
2022-08-14T11:31:27.267Z,1002.43
2022-08-14T11:32:27.252Z,1002.44
2022-08-14T11:33:26.257Z,1002.35
2022-08-14T11:34:32.098Z,1002.47
2022-08-14T11:35:27.214Z,1002.39
2022-08-14T11:36:35.137Z,1002.43
2022-08-14T11:37:38.081Z,1002.38
2022-08-14T11:38:27.195Z,1002.42
2022-08-14T11:39:34.865Z,1002.31
2022-08-14T11:40:29.251Z,1002.47
2022-08-14T11:41:26.164Z,1002.38
2022-08-14T11:42:58.186Z,1002.41
2022-08-14T11:43:29.203Z,1002.39
2022-08-14T11:44:45.419Z,1002.39
2022-08-14T11:45:29.941Z,1002.38
2022-08-14T11:46:30.753Z,1002.38
2022-08-14T11:47:27.093Z,1002.30
2022-08-14T11:49:03.230Z,1002.19
2022-08-14T11:49:27.061Z,1002.22
2022-08-14T11:50:36.056Z,1002.22
2022-08-14T11:51:30.581Z,1002.22
2022-08-14T11:52:26.047Z,1002.23
2022-08-14T11:53:26.044Z,1002.20
2022-08-14T11:54:34.185Z,1002.24
2022-08-14T11:55:27.019Z,1002.16
2022-08-14T11:56:29.690Z,1002.18
2022-08-14T11:57:26.000Z,1002.12
2022-08-14T11:58:25.966Z,1002.08
2022-08-14T11:59:26.507Z,1002.08
2022-08-14T12:00:31.674Z,1002.06
2022-08-14T12:01:26.949Z,1002.12
2022-08-14T12:02:38.838Z,1002.05
2022-08-14T12:03:46.194Z,1002.00
2022-08-14T12:04:33.381Z,1002.01
2022-08-14T12:05:26.886Z,1001.98